Terminal Aerodrome Forecast
Issued by NWS Wilmington, OH

Home | Current Version | Previous Version | Text Only | Print | Product List | Glossary On
Versions: 1 2 3 4 5 6 7 8 9 10 11 12 13 14 15 16 17 18 19 20 21 22
000
FTUS41 KILN 041100 RRA
TAFILN
TAF
KILN 041142Z 0412/0512 29005KT 4SM -RA BR SCT004 OVC025
      TEMPO 0412/0414 2SM -RA BR BKN004
     FM041400 32008KT P6SM BKN025 OVC080
     FM042000 34011KT 1SM -SN OVC006
     FM050100 35010KT 4SM -SN BKN012 OVC100
     FM050500 35008KT P6SM SCT020 OVC100=

USA.gov is the U.S. government's official web portal to all federal, state and local government web resources and services.